createdAt,value
2022-12-08T00:02:02.661Z,14.17
2022-12-08T00:05:28.558Z,13.40
2022-12-08T00:08:52.970Z,13.90
2022-12-08T00:12:01.690Z,13.03
2022-12-08T00:15:09.796Z,12.43
2022-12-08T00:18:16.248Z,13.47
2022-12-08T00:21:22.536Z,13.00
2022-12-08T00:24:34.915Z,16.27
2022-12-08T00:27:40.915Z,12.87
2022-12-08T00:30:48.554Z,12.33
2022-12-08T00:33:54.700Z,11.40
2022-12-08T00:37:00.738Z,12.70
2022-12-08T00:40:08.342Z,11.23
2022-12-08T00:43:14.982Z,11.73
2022-12-08T00:46:22.485Z,10.37
2022-12-08T00:49:28.648Z,12.67
2022-12-08T00:52:35.233Z,11.80
2022-12-08T00:55:41.478Z,19.73
2022-12-08T00:58:47.641Z,18.53
2022-12-08T01:01:55.428Z,12.00
2022-12-08T01:05:01.530Z,9.00
2022-12-08T01:08:08.184Z,9.90
2022-12-08T01:11:17.462Z,9.67
2022-12-08T01:14:23.812Z,10.60
2022-12-08T01:17:31.341Z,9.43
2022-12-08T01:20:37.339Z,11.33
2022-12-08T01:23:44.208Z,14.40
2022-12-08T01:26:52.047Z,12.53
2022-12-08T01:29:58.222Z,13.03
2022-12-08T01:33:06.176Z,12.40
2022-12-08T01:36:21.253Z,10.53
2022-12-08T01:39:27.637Z,14.67
2022-12-08T01:42:34.677Z,13.27
2022-12-08T01:45:42.216Z,11.97
2022-12-08T01:48:52.241Z,12.47
2022-12-08T01:52:04.268Z,11.30
2022-12-08T01:55:16.798Z,12.33
2022-12-08T01:58:27.970Z,12.73
2022-12-08T02:01:34.910Z,13.27
2022-12-08T02:04:42.452Z,14.07
2022-12-08T02:07:49.793Z,13.03
2022-12-08T02:10:56.097Z,12.73
2022-12-08T02:14:07.199Z,14.03
2022-12-08T02:17:23.664Z,12.80
2022-12-08T02:20:46.540Z,14.47
2022-12-08T02:24:00.682Z,15.10
2022-12-08T02:27:34.088Z,20.30
2022-12-08T02:30:52.126Z,13.70
2022-12-08T02:34:28.930Z,15.70
2022-12-08T02:37:40.546Z,13.10
2022-12-08T02:40:54.691Z,13.80
2022-12-08T02:44:07.537Z,13.33
2022-12-08T02:47:17.052Z,15.67
2022-12-08T02:50:24.491Z,12.57
2022-12-08T02:53:33.521Z,14.37
2022-12-08T02:57:13.669Z,11.93
2022-12-08T03:00:22.884Z,20.13
2022-12-08T03:03:36.932Z,17.23
2022-12-08T03:06:50.119Z,16.50
2022-12-08T03:10:00.079Z,15.37
2022-12-08T03:13:11.014Z,12.83
2022-12-08T03:16:23.995Z,12.33
2022-12-08T03:19:34.069Z,14.23
2022-12-08T03:22:43.422Z,13.67
2022-12-08T03:25:58.185Z,13.07
2022-12-08T03:29:05.277Z,15.70
2022-12-08T03:32:20.577Z,19.33
2022-12-08T03:35:31.570Z,19.63
2022-12-08T03:38:44.523Z,18.23
2022-12-08T03:41:50.476Z,13.77
2022-12-08T03:44:56.897Z,11.93
2022-12-08T03:48:02.790Z,11.70
2022-12-08T03:51:09.125Z,14.47
2022-12-08T03:54:16.717Z,12.73
2022-12-08T03:57:23.057Z,14.53
2022-12-08T04:00:29.150Z,13.47
2022-12-08T04:03:35.166Z,13.83
2022-12-08T04:06:41.624Z,22.10
2022-12-08T04:09:49.295Z,12.10
2022-12-08T04:12:55.715Z,26.00
2022-12-08T04:16:02.324Z,28.20
2022-12-08T04:19:08.370Z,19.37
2022-12-08T04:22:14.466Z,31.70
2022-12-08T04:25:21.730Z,24.87
2022-12-08T04:28:29.556Z,24.13
2022-12-08T04:31:35.506Z,15.93
2022-12-08T04:34:41.820Z,12.83
2022-12-08T04:37:47.831Z,13.67
2022-12-08T04:40:55.472Z,12.90
2022-12-08T04:44:01.862Z,12.83
2022-12-08T04:47:08.261Z,13.30
2022-12-08T04:50:14.585Z,14.77
2022-12-08T04:53:21.495Z,15.33
2022-12-08T04:56:29.193Z,17.97
2022-12-08T04:59:35.512Z,12.23
2022-12-08T05:02:42.073Z,16.13
2022-12-08T05:05:48.702Z,19.23
2022-12-08T05:08:54.656Z,13.80
2022-12-08T05:12:02.076Z,13.57
2022-12-08T05:15:09.330Z,16.50
2022-12-08T05:18:15.819Z,14.87
2022-12-08T05:21:21.982Z,13.17
2022-12-08T05:24:28.238Z,11.50
2022-12-08T05:27:35.663Z,11.77
2022-12-08T05:30:42.026Z,15.73
2022-12-08T05:33:50.155Z,15.10
2022-12-08T05:36:56.383Z,14.80
2022-12-08T05:40:02.585Z,13.30
2022-12-08T05:43:11.003Z,11.57
2022-12-08T05:46:18.480Z,11.83
2022-12-08T05:49:25.067Z,11.87
2022-12-08T05:52:31.040Z,16.17
2022-12-08T05:55:37.076Z,16.80
2022-12-08T05:58:45.643Z,19.07
2022-12-08T06:01:51.864Z,20.97
2022-12-08T06:04:58.334Z,23.20
2022-12-08T06:08:04.492Z,20.50
2022-12-08T06:11:11.276Z,24.47
2022-12-08T06:14:18.680Z,25.47
2022-12-08T06:17:24.697Z,21.90
2022-12-08T06:20:31.039Z,27.33
2022-12-08T06:23:37.383Z,27.33
2022-12-08T06:26:43.532Z,17.57
2022-12-08T06:29:51.007Z,17.07
2022-12-08T06:32:57.197Z,15.70
2022-12-08T06:36:03.108Z,18.17
2022-12-08T06:39:10.301Z,18.43
2022-12-08T06:42:34.441Z,17.27
2022-12-08T06:45:42.483Z,16.83
2022-12-08T06:48:50.655Z,15.20
2022-12-08T06:51:56.755Z,13.20
2022-12-08T06:55:03.056Z,10.33
2022-12-08T06:58:09.362Z,17.77
2022-12-08T07:01:16.855Z,18.03
2022-12-08T07:04:23.210Z,14.87
2022-12-08T07:07:29.245Z,14.10
2022-12-08T07:10:35.910Z,18.87
2022-12-08T07:13:42.376Z,24.83
2022-12-08T07:16:50.100Z,27.07
2022-12-08T07:19:56.301Z,25.63
2022-12-08T07:23:02.487Z,30.27
2022-12-08T07:26:11.628Z,27.27
2022-12-08T07:29:23.006Z,26.17
2022-12-08T07:32:33.560Z,27.27
2022-12-08T07:35:39.612Z,31.90
2022-12-08T07:38:45.566Z,27.07
2022-12-08T07:41:51.513Z,28.73
2022-12-08T07:44:57.829Z,23.97
2022-12-08T07:48:05.474Z,27.73
2022-12-08T07:51:14.058Z,29.30
2022-12-08T07:54:20.261Z,25.37
2022-12-08T07:57:26.405Z,20.77
2022-12-08T08:00:32.436Z,22.77
2022-12-08T08:03:40.433Z,28.97
2022-12-08T08:06:46.694Z,24.47
2022-12-08T08:09:52.792Z,19.80
2022-12-08T08:13:00.436Z,19.37
2022-12-08T08:16:07.574Z,18.57
2022-12-08T08:19:15.297Z,20.53
2022-12-08T08:22:21.775Z,19.23
2022-12-08T08:25:28.349Z,24.00
2022-12-08T08:28:34.775Z,18.50
2022-12-08T08:31:41.361Z,15.43
2022-12-08T08:34:49.400Z,11.53
2022-12-08T08:37:55.682Z,9.83
2022-12-08T08:41:03.081Z,12.30
2022-12-08T08:44:09.517Z,9.00
2022-12-08T08:47:15.906Z,11.57
2022-12-08T08:50:23.935Z,14.80
2022-12-08T08:53:30.090Z,14.37
2022-12-08T08:56:36.752Z,11.50
2022-12-08T08:59:42.830Z,10.97
2022-12-08T09:02:49.157Z,8.97
2022-12-08T09:05:58.235Z,6.63
2022-12-08T09:09:05.110Z,9.40
2022-12-08T09:12:11.972Z,12.17
2022-12-08T09:15:20.618Z,8.83
2022-12-08T09:18:27.113Z,9.93
2022-12-08T09:21:35.156Z,9.93
2022-12-08T09:24:41.695Z,8.80
2022-12-08T09:27:47.801Z,9.70
2022-12-08T09:30:54.157Z,9.87
2022-12-08T09:34:00.579Z,13.30
2022-12-08T09:37:08.485Z,12.53
2022-12-08T09:40:19.818Z,23.83
2022-12-08T09:43:47.641Z,20.13
2022-12-08T09:46:54.519Z,16.20
2022-12-08T09:50:07.541Z,19.77
2022-12-08T09:53:19.896Z,26.50
2022-12-08T09:56:30.095Z,18.73
2022-12-08T09:59:37.272Z,20.97
2022-12-08T10:02:46.940Z,19.90
2022-12-08T10:06:08.976Z,17.73
2022-12-08T10:09:32.428Z,18.43
2022-12-08T10:12:44.647Z,17.77
2022-12-08T10:15:59.341Z,19.03
2022-12-08T10:19:14.972Z,17.90
2022-12-08T10:22:23.381Z,21.30
2022-12-08T10:25:37.231Z,20.03
2022-12-08T10:28:45.493Z,22.60
2022-12-08T10:31:52.263Z,28.80
2022-12-08T10:35:06.068Z,22.10
2022-12-08T10:38:19.963Z,21.80
2022-12-08T10:41:27.762Z,25.53
2022-12-08T10:44:34.242Z,23.43
2022-12-08T10:47:45.031Z,26.23
2022-12-08T10:50:56.082Z,25.23
2022-12-08T10:54:03.379Z,26.90
2022-12-08T10:57:22.019Z,29.23
2022-12-08T11:00:29.597Z,27.87
2022-12-08T11:03:46.340Z,12.33
2022-12-08T11:06:54.137Z,10.23
2022-12-08T11:10:01.288Z,11.50
2022-12-08T11:13:24.690Z,22.07
2022-12-08T11:16:30.976Z,11.03
2022-12-08T11:19:39.973Z,17.17
2022-12-08T11:22:48.287Z,14.03
2022-12-08T11:25:58.970Z,26.50
2022-12-08T11:29:06.860Z,24.47
2022-12-08T11:32:15.067Z,21.27
2022-12-08T11:35:26.779Z,13.97
2022-12-08T11:38:35.451Z,12.90
2022-12-08T11:41:46.069Z,17.87
2022-12-08T11:44:58.645Z,30.50
2022-12-08T11:48:15.826Z,26.03
2022-12-08T11:51:29.992Z,21.90
2022-12-08T11:54:40.576Z,21.03
2022-12-08T11:57:47.182Z,16.33
2022-12-08T12:00:55.266Z,16.97
2022-12-08T12:04:12.533Z,26.83
2022-12-08T12:07:55.811Z,22.33
2022-12-08T12:11:34.231Z,16.30
2022-12-08T12:14:55.452Z,12.53
2022-12-08T12:18:08.084Z,9.07
2022-12-08T12:21:22.288Z,12.60
2022-12-08T12:24:35.980Z,10.50
2022-12-08T12:27:43.858Z,10.77
2022-12-08T12:31:00.539Z,11.40
2022-12-08T12:34:12.909Z,13.33
2022-12-08T12:37:23.361Z,6.83
2022-12-08T12:40:35.643Z,7.33
2022-12-08T12:44:02.295Z,21.07
2022-12-08T12:47:15.269Z,15.07
2022-12-08T12:50:44.562Z,12.00
2022-12-08T12:53:52.149Z,12.87
2022-12-08T12:57:17.001Z,18.03
2022-12-08T13:00:25.627Z,15.73
2022-12-08T13:03:32.082Z,10.67
2022-12-08T13:06:43.488Z,13.43
2022-12-08T13:09:58.920Z,12.00
2022-12-08T13:13:19.266Z,14.80
2022-12-08T13:16:28.090Z,12.47
2022-12-08T13:19:37.349Z,6.97
2022-12-08T13:23:15.188Z,6.47
2022-12-08T13:26:23.795Z,8.80
2022-12-08T13:29:30.451Z,6.83
2022-12-08T13:33:22.821Z,7.43
2022-12-08T13:36:27.700Z,9.27
2022-12-08T13:39:42.587Z,7.50
2022-12-08T13:42:58.945Z,9.63
2022-12-08T13:57:06.797Z,17.67
2022-12-08T14:00:18.146Z,14.30
2022-12-08T14:03:24.231Z,10.53
2022-12-08T14:06:37.751Z,10.87
2022-12-08T14:09:44.366Z,10.60
2022-12-08T14:12:56.812Z,14.90
2022-12-08T14:16:03.058Z,14.90
2022-12-08T14:19:19.416Z,9.73
2022-12-08T14:22:26.092Z,15.47
2022-12-08T14:25:32.617Z,13.47
2022-12-08T14:28:44.774Z,11.93
2022-12-08T14:31:51.673Z,8.30
2022-12-08T14:35:01.083Z,8.73
2022-12-08T14:38:13.853Z,49.50
2022-12-08T14:41:28.185Z,30.73
2022-12-08T14:44:41.221Z,28.83
2022-12-08T14:47:48.641Z,29.10
2022-12-08T14:51:02.981Z,27.93
2022-12-08T14:54:11.588Z,24.07
2022-12-08T14:57:18.130Z,27.23
2022-12-08T15:00:26.931Z,27.53
2022-12-08T15:03:33.711Z,48.27
2022-12-08T15:06:48.825Z,46.67
2022-12-08T15:10:11.680Z,48.23
2022-12-08T15:13:24.576Z,41.67
2022-12-08T15:16:40.777Z,45.20
2022-12-08T15:19:57.682Z,33.80
2022-12-08T15:23:04.287Z,33.33
2022-12-08T15:26:19.785Z,34.50
2022-12-08T15:29:28.570Z,38.77
2022-12-08T15:32:36.099Z,35.10
2022-12-08T15:35:42.504Z,35.40
2022-12-08T15:38:49.110Z,38.23
2022-12-08T15:41:55.504Z,38.57
2022-12-08T15:45:01.575Z,35.23
2022-12-08T15:48:14.895Z,30.73
2022-12-08T15:51:21.044Z,41.20
2022-12-08T15:54:27.092Z,28.13
2022-12-08T15:58:17.437Z,34.77
2022-12-08T16:01:01.153Z,40.87
2022-12-08T16:04:37.260Z,47.40
2022-12-08T16:07:38.291Z,78.87
2022-12-08T16:11:24.151Z,98.30
2022-12-08T16:15:01.430Z,61.57
2022-12-08T16:17:37.618Z,48.07
2022-12-08T16:24:11.986Z,40.87
2022-12-08T16:27:59.436Z,30.07
2022-12-08T16:30:49.574Z,24.77
2022-12-08T16:33:55.751Z,21.90
2022-12-08T16:37:03.597Z,20.83
2022-12-08T16:40:11.670Z,26.60
2022-12-08T16:43:17.057Z,20.83
2022-12-08T16:46:27.586Z,22.50
2022-12-08T16:49:34.026Z,20.03
2022-12-08T16:52:41.578Z,19.00
2022-12-08T16:55:48.425Z,17.27
2022-12-08T16:58:54.294Z,19.33
2022-12-08T17:02:00.293Z,18.13
2022-12-08T17:05:06.965Z,18.17
2022-12-08T17:08:14.739Z,25.83
2022-12-08T17:11:26.573Z,30.83
2022-12-08T17:14:35.183Z,24.03
2022-12-08T17:17:41.388Z,27.77
2022-12-08T17:20:47.889Z,14.20
2022-12-08T17:23:55.993Z,24.47
2022-12-08T17:27:04.297Z,24.00
2022-12-08T17:30:15.656Z,18.67
2022-12-08T17:33:26.755Z,20.27
2022-12-08T17:36:33.541Z,16.53
2022-12-08T17:39:41.758Z,23.53
2022-12-08T17:42:48.106Z,33.43
2022-12-08T17:45:56.264Z,21.60
2022-12-08T17:49:02.771Z,25.40
2022-12-08T17:52:09.226Z,31.53
2022-12-08T17:55:17.125Z,33.90
2022-12-08T17:58:24.802Z,29.60
2022-12-08T18:01:34.489Z,27.93
2022-12-08T18:04:41.416Z,26.37
2022-12-08T18:07:48.127Z,31.77
2022-12-08T18:10:56.185Z,29.00
2022-12-08T18:14:09.413Z,28.43
2022-12-08T18:17:15.548Z,34.57
2022-12-08T18:20:21.782Z,28.40
2022-12-08T18:23:28.342Z,27.43
2022-12-08T18:26:36.154Z,31.80
2022-12-08T18:29:42.719Z,40.27
2022-12-08T18:32:52.883Z,37.57
2022-12-08T18:36:02.298Z,40.53
2022-12-08T18:39:10.885Z,46.43
2022-12-08T18:42:25.291Z,50.03
2022-12-08T18:45:31.536Z,55.37
2022-12-08T18:48:37.927Z,40.47
2022-12-08T18:51:44.090Z,34.50
2022-12-08T18:55:05.709Z,46.90
2022-12-08T18:58:14.632Z,34.43
2022-12-08T19:01:21.315Z,30.20
2022-12-08T19:04:29.065Z,28.80
2022-12-08T19:07:36.304Z,28.40
2022-12-08T19:10:42.416Z,31.40
2022-12-08T19:13:50.226Z,28.70
2022-12-08T19:16:56.624Z,48.93
2022-12-08T19:20:03.928Z,43.07
2022-12-08T19:23:10.410Z,38.47
2022-12-08T19:26:17.143Z,35.80
2022-12-08T19:29:24.853Z,38.47
2022-12-08T19:32:31.258Z,31.60
2022-12-08T19:35:38.017Z,35.80
2022-12-08T19:39:01.669Z,41.57
2022-12-08T19:42:32.432Z,45.03
2022-12-08T19:45:39.967Z,36.03
2022-12-08T19:48:46.436Z,30.10
2022-12-08T19:51:52.747Z,26.23
2022-12-08T19:54:58.821Z,38.63
2022-12-08T19:58:05.496Z,28.27
2022-12-08T20:01:13.225Z,24.07
2022-12-08T20:04:20.385Z,25.53
2022-12-08T20:07:26.410Z,25.03
2022-12-08T20:10:35.753Z,26.33
2022-12-08T20:13:41.985Z,23.23
2022-12-08T20:16:50.760Z,27.47
2022-12-08T20:19:57.129Z,27.37
2022-12-08T20:23:03.540Z,25.43
2022-12-08T20:26:12.857Z,26.10
2022-12-08T20:32:44.406Z,22.37
2022-12-08T20:35:59.678Z,23.43
2022-12-08T20:39:06.170Z,24.83
2022-12-08T20:42:13.951Z,21.80
2022-12-08T20:45:20.468Z,19.33
2022-12-08T20:48:28.355Z,28.10
2022-12-08T20:51:35.515Z,39.30
2022-12-08T20:54:41.929Z,43.43
2022-12-08T20:57:48.303Z,46.70
2022-12-08T21:00:54.753Z,31.13
2022-12-08T21:04:02.679Z,33.50
2022-12-08T21:07:09.550Z,32.23
2022-12-08T21:10:16.195Z,31.83
2022-12-08T21:13:22.410Z,33.27
2022-12-08T21:16:28.760Z,34.10
2022-12-08T21:19:36.875Z,33.17
2022-12-08T21:22:42.953Z,29.77
2022-12-08T21:25:49.400Z,43.77
2022-12-08T21:28:55.985Z,34.13
2022-12-08T21:32:02.418Z,26.90
2022-12-08T21:35:11.464Z,36.10
2022-12-08T21:38:17.804Z,27.53
2022-12-08T21:41:39.368Z,28.83
2022-12-08T21:44:45.610Z,32.93
2022-12-08T21:47:52.203Z,36.30
2022-12-08T21:51:05.385Z,36.60
2022-12-08T21:54:18.221Z,33.10
2022-12-08T21:57:25.401Z,41.40
2022-12-08T22:00:31.798Z,24.67
2022-12-08T22:03:38.509Z,16.97
2022-12-08T22:06:45.983Z,17.40
2022-12-08T22:09:52.127Z,16.80
2022-12-08T22:12:58.238Z,18.97
2022-12-08T22:16:07.595Z,41.30
2022-12-08T22:19:13.683Z,23.27
2022-12-08T22:22:21.912Z,23.40
2022-12-08T22:25:28.048Z,22.50
2022-12-08T22:28:37.396Z,22.37
2022-12-08T22:31:44.679Z,19.87
2022-12-08T22:34:50.530Z,21.93
2022-12-08T22:37:57.978Z,22.77
2022-12-08T22:41:05.798Z,25.07
2022-12-08T22:44:14.018Z,20.27
2022-12-08T22:47:20.129Z,19.70
2022-12-08T22:50:26.468Z,20.10
2022-12-08T22:53:34.245Z,20.80
2022-12-08T22:56:40.654Z,26.40
2022-12-08T22:59:46.926Z,23.30
2022-12-08T23:02:52.832Z,21.43
2022-12-08T23:05:59.417Z,18.90
2022-12-08T23:09:08.600Z,22.87
2022-12-08T23:12:14.937Z,24.93
2022-12-08T23:15:21.276Z,25.63
2022-12-08T23:18:27.720Z,25.30
2022-12-08T23:21:33.817Z,16.63
2022-12-08T23:24:41.726Z,12.37
2022-12-08T23:27:48.964Z,9.87
2022-12-08T23:30:54.878Z,9.40
2022-12-08T23:34:01.246Z,8.53
2022-12-08T23:37:07.192Z,8.97
2022-12-08T23:40:15.185Z,10.03
2022-12-08T23:43:21.600Z,10.87
2022-12-08T23:46:27.580Z,8.23
2022-12-08T23:49:34.085Z,8.53
2022-12-08T23:52:40.213Z,8.47
2022-12-08T23:55:47.913Z,9.63
2022-12-08T23:58:54.057Z,10.60
